Ana Sayfa
METAR-TAF:

METAR-TAF

Havaalanları :

Mandalay, Birmanya

Enlem: 21-59N, Boylam: 096-06E, yükseklik: 74 m

Güncel hava durumu gözlemi

Rapor saat 12:30 UTC de 6 saat ve 53 dakika önce yapıldı.
Rüzgar kuzeydan 3 kt
Sıcaklık 32°C
Nem 38%
Basınç 1004 hPa
Görüş mesafesi: 6000 m

METAR: VYMD 311230Z 35003KT 6000 NSC 32/16 Q1004 NOSIG

Saat: 01:53 (19:23 UTC)

Tahmin

Rapor saat 11:00 UTC de 8 saat ve 23 dakika önce yapıldı.
Ayın 31'si saat 12 UTC'den ayın 01'si saat 12 UTC'ye kadar geçerli Tahmin
Rüzgar güneydan 5 kt
Görüş mesafesi: 6000 m
2500 ft yükseklikte az bulutlu
Geçici
ayın 31'si saat 12 UTC'den ayın 31'si saat 18 UTC'ye kadar
Rüzgar güneybatıdan 7 kt
Görüş mesafesi: 6000 m
2000 ft yükseklikte az bulutlu

TAF: VYMD 311100Z 3112/0112 19005KT 6000 FEW025 TEMPO 3112/3118 23007KT 6000 FEW020

4.000'den fazla havaalanı için hava durumu gözlemleri ve tahminleri (METAR ve TAF raporları).

Kullanılabilir istasyonlar harita üzerinde sarı ve kırmızı noktalarla gösterilir.

İstasyonun adını görmek için fareyi noktanın üzerinde gezdirin.

Sonrasında hava gözlem ve tahminlerini görmek için tıklayın.

Haritayı değiştirmek için: yaklaştırmak için siyah artı işaretli yeşil düğmeye ve uzaklaştırmak için de eksi işaretli düğmeye hızla tıklayın; bitişik haritalar için yeşil okları kullanın.


METAR-TAF: